Time;durP1;ratioP1;P1;durP2;ratioP2;P2;SDS_P1;SDS_P2;PMS_P1;PMS_P2;Temp;Humidity;BMP_temperature;BMP_pressure;BME280_temperature;BME280_humidity;BME280_pressure;Samples;Min_cycle;Max_cycle;Signal;HPM_P1;HPM_P2
2022/05/09 00:00:00;;;;;;;2.38;0.65;;;7.20;98.70;;;;;;5064087;28;20051;-68
2022/05/09 00:02:26;;;;;;;3.72;0.80;;;7.10;98.90;;;;;;5073559;28;20496;-68
2022/05/09 00:04:52;;;;;;;2.38;0.80;;;7.10;99.00;;;;;;5056924;28;20190;-68
2022/05/09 00:07:17;;;;;;;2.90;0.85;;;7.10;99.00;;;;;;5052057;28;20044;-68
2022/05/09 00:09:43;;;;;;;1.20;0.65;;;7.10;99.10;;;;;;5073083;28;20048;-68
2022/05/09 00:12:09;;;;;;;1.50;0.68;;;7.10;99.20;;;;;;5071444;28;20043;-68
2022/05/09 00:14:35;;;;;;;1.35;0.80;;;7.00;99.40;;;;;;5057244;28;20040;-68
2022/05/09 00:17:01;;;;;;;4.00;1.05;;;7.10;99.30;;;;;;5056511;28;20047;-68
2022/05/09 00:19:26;;;;;;;4.90;0.93;;;7.00;99.30;;;;;;5066253;28;20409;-68
2022/05/09 00:21:53;;;;;;;1.52;0.50;;;7.00;99.60;;;;;;5066320;28;20086;-68
2022/05/09 00:24:20;;;;;;;5.00;1.13;;;7.00;99.70;;;;;;5073157;28;20089;-68
2022/05/09 00:26:47;;;;;;;2.47;0.93;;;6.90;99.90;;;;;;5098922;28;20036;-68
2022/05/09 00:29:14;;;;;;;1.90;0.98;;;6.90;99.90;;;;;;5065561;28;20047;-67
2022/05/09 00:31:43;;;;;;;2.42;0.70;;;6.90;99.90;;;;;;5057284;28;20123;-68
2022/05/09 00:34:13;;;;;;;1.27;0.63;;;6.90;99.90;;;;;;5052784;28;20052;-67
2022/05/09 00:36:39;;;;;;;3.03;1.27;;;6.90;99.90;;;;;;5060841;28;20603;-68
2022/05/09 00:39:05;;;;;;;4.40;0.88;;;6.90;99.90;;;;;;5098586;28;20044;-68
2022/05/09 00:41:34;;;;;;;4.53;0.75;;;6.90;99.90;;;;;;5072989;28;20040;-67
2022/05/09 00:44:10;;;;;;;1.13;0.80;;;6.90;99.90;;;;;;5055544;28;20114;-68
2022/05/09 00:46:38;;;;;;;3.83;0.75;;;6.90;99.90;;;;;;5070579;28;20680;-68
2022/05/09 00:49:34;;;;;;;5.85;1.48;;;6.90;99.90;;;;;;5077113;28;20036;-68
2022/05/09 00:52:07;;;;;;;5.25;1.45;;;6.90;99.90;;;;;;5085489;28;20183;-68
2022/05/09 00:54:41;;;;;;;8.35;0.93;;;7.00;99.90;;;;;;5082634;28;20504;-68
2022/05/09 00:57:16;;;;;;;2.95;1.30;;;7.00;99.90;;;;;;5089046;28;20082;-68
2022/05/09 00:59:43;;;;;;;1.38;0.63;;;7.00;99.90;;;;;;5066808;28;20036;-68
2022/05/09 01:02:10;;;;;;;5.90;1.50;;;7.00;99.90;;;;;;5035209;28;20129;-67
2022/05/09 01:04:44;;;;;;;3.13;0.75;;;6.90;99.90;;;;;;5052580;28;20040;-68
2022/05/09 01:07:09;;;;;;;5.57;0.60;;;6.90;99.90;;;;;;5061186;28;20594;-68
2022/05/09 01:09:35;;;;;;;3.45;1.40;;;6.90;99.90;;;;;;5052860;28;20106;-68
2022/05/09 01:12:02;;;;;;;8.15;1.40;;;6.90;99.90;;;;;;5061603;28;20494;-68
2022/05/09 01:14:32;;;;;;;9.15;1.75;;;6.90;99.90;;;;;;5052672;28;20119;-68
2022/05/09 01:17:00;;;;;;;1.70;0.68;;;6.90;99.90;;;;;;5067611;28;20036;-68
2022/05/09 01:19:29;;;;;;;2.20;0.93;;;6.90;99.90;;;;;;5053666;28;20524;-68
2022/05/09 01:21:55;;;;;;;4.68;1.00;;;7.00;99.90;;;;;;5053280;28;20051;-68
2022/05/09 01:24:24;;;;;;;3.42;1.05;;;7.00;99.90;;;;;;5106089;28;20162;-68
2022/05/09 01:26:49;;;;;;;1.30;0.80;;;7.00;99.90;;;;;;5064070;28;20032;-68
2022/05/09 01:29:43;;;;;;;3.00;0.88;;;7.00;99.90;;;;;;5057058;28;20393;-68
2022/05/09 01:32:12;;;;;;;1.95;0.60;;;7.00;99.90;;;;;;5061961;28;20040;-68
2022/05/09 01:34:43;;;;;;;2.33;0.75;;;7.00;99.90;;;;;;5070258;28;20123;-68
2022/05/09 01:37:10;;;;;;;1.52;0.68;;;7.00;99.90;;;;;;5064516;28;20077;-68
2022/05/09 01:39:36;;;;;;;2.33;1.17;;;7.00;99.90;;;;;;5054702;28;20558;-68
2022/05/09 01:42:09;;;;;;;1.92;0.65;;;7.00;99.90;;;;;;5036701;28;20615;-68
2022/05/09 01:44:37;;;;;;;2.47;1.10;;;7.00;99.90;;;;;;5073077;28;20093;-68
2022/05/09 01:49:48;;;;;;;3.88;1.10;;;6.90;99.90;;;;;;5072913;28;20045;-68
2022/05/09 01:52:15;;;;;;;1.98;0.82;;;6.90;99.90;;;;;;5065742;28;20053;-68
2022/05/09 01:54:43;;;;;;;1.35;0.80;;;6.90;99.90;;;;;;5052765;28;20067;-68
2022/05/09 01:57:10;;;;;;;3.08;1.13;;;6.80;99.90;;;;;;5085021;28;20413;-68
2022/05/09 01:59:36;;;;;;;4.28;0.82;;;6.80;99.90;;;;;;5050480;28;20037;-68
2022/05/09 02:02:08;;;;;;;4.45;1.35;;;6.70;99.90;;;;;;5054065;28;20066;-68
2022/05/09 02:04:35;;;;;;;3.55;1.13;;;6.70;99.90;;;;;;5099799;28;20065;-68
2022/05/09 02:07:01;;;;;;;7.88;1.45;;;6.70;99.90;;;;;;5034979;28;20125;-68
2022/05/09 02:09:27;;;;;;;8.65;1.65;;;6.70;99.90;;;;;;5050367;28;20041;-68
2022/05/09 02:11:52;;;;;;;1.85;1.08;;;6.60;99.90;;;;;;5085179;28;20044;-68
2022/05/09 02:14:18;;;;;;;2.72;1.13;;;6.60;99.90;;;;;;5051170;28;20045;-68
2022/05/09 02:16:44;;;;;;;12.82;1.40;;;6.60;99.90;;;;;;5042876;28;20051;-68
2022/05/09 02:19:10;;;;;;;5.72;1.40;;;6.60;99.90;;;;;;5050709;28;20104;-68
2022/05/09 02:21:35;;;;;;;1.77;0.93;;;6.60;99.90;;;;;;5068397;28;20055;-68
2022/05/09 02:24:02;;;;;;;3.33;1.48;;;6.50;99.90;;;;;;5052917;28;20036;-68
2022/05/09 02:26:28;;;;;;;4.78;1.17;;;6.60;99.90;;;;;;5051349;28;20618;-67
2022/05/09 02:28:54;;;;;;;5.75;0.90;;;6.60;99.90;;;;;;5057722;28;20432;-68
2022/05/09 02:31:21;;;;;;;3.38;1.25;;;6.60;99.90;;;;;;5051603;28;20040;-68
2022/05/09 02:33:47;;;;;;;2.75;0.95;;;6.60;99.90;;;;;;5034299;28;20629;-68
2022/05/09 02:36:13;;;;;;;3.88;1.10;;;6.50;99.90;;;;;;5051173;28;20078;-68
2022/05/09 02:38:38;;;;;;;3.78;1.00;;;6.50;99.90;;;;;;5049214;28;20751;-68
2022/05/09 02:41:05;;;;;;;2.15;1.05;;;6.50;99.90;;;;;;5034396;28;20106;-68
2022/05/09 02:43:31;;;;;;;1.98;0.88;;;6.50;99.90;;;;;;5059207;28;20086;-68
2022/05/09 02:46:03;;;;;;;1.98;0.95;;;6.40;99.90;;;;;;5054035;28;20047;-68
2022/05/09 02:48:30;;;;;;;1.73;0.80;;;6.40;99.90;;;;;;5063842;28;20047;-68
2022/05/09 02:50:56;;;;;;;3.45;1.27;;;6.40;99.90;;;;;;5063928;28;20035;-68
2022/05/09 02:53:21;;;;;;;3.78;1.10;;;6.40;99.90;;;;;;5051209;28;20535;-68
2022/05/09 02:55:47;;;;;;;5.25;0.98;;;6.40;99.90;;;;;;5079242;28;20058;-68
2022/05/09 02:58:14;;;;;;;3.33;0.98;;;6.30;99.90;;;;;;5051372;28;20044;-68
2022/05/09 03:00:39;;;;;;;4.93;1.02;;;6.30;99.90;;;;;;5052306;28;20052;-68
2022/05/09 03:05:49;;;;;;;1.83;0.80;;;6.30;99.90;;;;;;5066872;28;20044;-68
2022/05/09 03:08:17;;;;;;;1.70;0.85;;;6.20;99.90;;;;;;5044116;28;20115;-68
2022/05/09 03:10:43;;;;;;;2.03;0.98;;;6.20;99.90;;;;;;5048859;28;20036;-68
2022/05/09 03:13:09;;;;;;;1.02;0.57;;;6.20;99.90;;;;;;5061018;28;20032;-67
2022/05/09 03:15:38;;;;;;;4.88;1.20;;;6.10;99.90;;;;;;5050467;28;20041;-68
2022/05/09 03:18:05;;;;;;;6.93;1.08;;;6.10;99.90;;;;;;5090040;28;20043;-68
2022/05/09 03:20:30;;;;;;;0.95;0.52;;;6.10;99.90;;;;;;5063173;28;20531;-68
2022/05/09 03:22:57;;;;;;;1.83;0.77;;;6.10;99.90;;;;;;5094536;28;20028;-67
2022/05/09 03:25:23;;;;;;;2.78;0.82;;;6.10;99.90;;;;;;5070522;28;20162;-67
2022/05/09 03:27:49;;;;;;;1.75;1.17;;;6.00;99.90;;;;;;5052999;28;20076;-68
2022/05/09 03:30:17;;;;;;;2.55;0.47;;;6.00;99.90;;;;;;5067612;28;20083;-67
2022/05/09 03:32:44;;;;;;;2.60;0.88;;;5.90;99.90;;;;;;5063535;28;20043;-67
2022/05/09 03:35:11;;;;;;;0.88;0.60;;;5.80;99.90;;;;;;5053789;28;20039;-67
2022/05/09 03:37:37;;;;;;;4.28;1.40;;;5.80;99.90;;;;;;5097799;28;20066;-67
2022/05/09 03:40:04;;;;;;;7.10;1.63;;;5.80;99.90;;;;;;5070329;28;20040;-67
2022/05/09 03:42:30;;;;;;;2.22;1.05;;;5.70;99.90;;;;;;5066021;28;20044;-67
2022/05/09 03:44:55;;;;;;;5.90;1.05;;;5.80;99.90;;;;;;5065918;28;20048;-68
2022/05/09 03:47:21;;;;;;;1.27;0.60;;;5.70;99.90;;;;;;5047093;28;20044;-68
2022/05/09 03:49:47;;;;;;;1.75;0.52;;;5.70;99.90;;;;;;5033806;28;20044;-67
2022/05/09 03:52:12;;;;;;;1.52;0.63;;;5.70;99.90;;;;;;5058900;28;20033;-67
2022/05/09 03:54:38;;;;;;;1.63;1.17;;;5.60;99.90;;;;;;5066912;28;20036;-67
2022/05/09 03:57:04;;;;;;;1.15;0.52;;;5.60;99.90;;;;;;5067259;28;20066;-67
2022/05/09 03:59:31;;;;;;;2.78;0.90;;;5.60;99.90;;;;;;5103906;28;20067;-67
2022/05/09 04:01:56;;;;;;;1.10;0.85;;;5.60;99.90;;;;;;5053353;28;20084;-67
2022/05/09 04:04:22;;;;;;;1.52;0.73;;;5.60;99.90;;;;;;5069029;28;20643;-67
2022/05/09 04:06:51;;;;;;;1.15;0.70;;;5.60;99.90;;;;;;5070414;28;22069;-68
2022/05/09 04:09:17;;;;;;;1.10;0.52;;;5.60;99.90;;;;;;5054818;28;20035;-67
2022/05/09 04:11:42;;;;;;;1.10;0.63;;;5.60;99.90;;;;;;5083933;28;20432;-67
2022/05/09 04:14:08;;;;;;;7.32;0.88;;;5.60;99.90;;;;;;5062612;28;20043;-67
2022/05/09 04:16:51;;;;;;;2.15;0.93;;;5.70;99.90;;;;;;5072067;28;20036;-67
2022/05/09 04:19:20;;;;;;;2.03;0.75;;;5.70;99.90;;;;;;5063965;28;20044;-67
2022/05/09 04:21:46;;;;;;;1.55;0.88;;;5.80;99.90;;;;;;5055267;28;20074;-67
2022/05/09 04:24:12;;;;;;;1.27;0.88;;;5.80;99.90;;;;;;5089268;28;20076;-67
2022/05/09 04:26:39;;;;;;;3.80;0.70;;;5.80;99.90;;;;;;5079399;28;20090;-67
2022/05/09 04:29:05;;;;;;;4.47;0.90;;;5.80;99.90;;;;;;5072181;28;20032;-68
2022/05/09 04:31:30;;;;;;;1.67;1.08;;;5.80;99.90;;;;;;5068363;28;20577;-68
2022/05/09 04:33:58;;;;;;;2.45;1.10;;;5.80;99.90;;;;;;5067575;28;20101;-67
2022/05/09 04:36:25;;;;;;;2.22;0.95;;;5.80;99.90;;;;;;5051126;28;20156;-67
2022/05/09 04:38:52;;;;;;;5.95;1.13;;;5.90;99.90;;;;;;5068348;28;20412;-67
2022/05/09 04:41:19;;;;;;;1.45;0.75;;;5.90;99.90;;;;;;5106472;28;20062;-68
2022/05/09 04:43:47;;;;;;;2.92;1.00;;;5.90;99.90;;;;;;5073116;28;20032;-67
2022/05/09 04:46:13;;;;;;;2.83;1.00;;;5.90;99.90;;;;;;5061758;28;20044;-67
2022/05/09 04:48:41;;;;;;;1.08;0.55;;;5.90;99.90;;;;;;5083821;28;20068;-68
2022/05/09 04:51:08;;;;;;;3.83;1.25;;;6.00;99.90;;;;;;5057844;28;20067;-68
2022/05/09 04:53:34;;;;;;;3.20;0.60;;;6.00;99.90;;;;;;5087428;28;20721;-68
2022/05/09 04:55:59;;;;;;;3.63;0.93;;;6.00;99.90;;;;;;5059613;28;20020;-67
2022/05/09 04:58:26;;;;;;;2.85;1.40;;;6.10;99.90;;;;;;5077544;28;20720;-68
2022/05/09 05:00:52;;;;;;;1.45;0.77;;;6.10;99.90;;;;;;5069577;28;20040;-67
2022/05/09 05:03:18;;;;;;;3.13;1.42;;;6.10;99.90;;;;;;5052402;28;20044;-68
2022/05/09 05:05:44;;;;;;;1.45;0.93;;;6.10;99.90;;;;;;5051444;28;20031;-68
2022/05/09 05:08:13;;;;;;;4.22;1.67;;;6.10;99.90;;;;;;5061508;28;20058;-67
2022/05/09 05:10:39;;;;;;;2.75;1.15;;;6.10;99.90;;;;;;5068601;28;20048;-68
2022/05/09 05:13:05;;;;;;;3.75;1.08;;;6.10;99.90;;;;;;5072885;28;20048;-68
2022/05/09 05:15:32;;;;;;;1.17;0.75;;;6.20;99.90;;;;;;5048635;28;20497;-68
2022/05/09 05:17:57;;;;;;;5.03;1.10;;;6.20;99.90;;;;;;5065950;28;20090;-67
2022/05/09 05:20:23;;;;;;;4.53;1.10;;;6.20;99.90;;;;;;5091339;28;20040;-68
2022/05/09 05:22:49;;;;;;;6.80;1.30;;;6.30;99.90;;;;;;5071470;28;20517;-68
2022/05/09 05:25:28;;;;;;;9.35;2.22;;;6.30;99.90;;;;;;5086896;28;20481;-67
2022/05/09 05:27:54;;;;;;;1.63;1.15;;;6.30;99.90;;;;;;5095544;28;20166;-68
2022/05/09 05:30:20;;;;;;;3.03;1.33;;;6.40;99.90;;;;;;5068820;28;20126;-67
2022/05/09 05:32:47;;;;;;;2.55;1.30;;;6.40;99.90;;;;;;5066002;28;20420;-68
2022/05/09 05:35:16;;;;;;;9.38;1.58;;;6.50;99.90;;;;;;5061288;28;20095;-68
2022/05/09 05:37:42;;;;;;;3.00;1.30;;;6.60;99.90;;;;;;5098992;28;20861;-68
2022/05/09 05:40:09;;;;;;;3.25;1.40;;;6.80;99.90;;;;;;5066130;28;20044;-68
2022/05/09 05:42:38;;;;;;;6.80;1.77;;;7.00;99.90;;;;;;5035219;28;20069;-67
2022/05/09 05:45:04;;;;;;;4.50;1.70;;;7.30;99.90;;;;;;5052087;28;20101;-67
2022/05/09 05:47:30;;;;;;;8.18;1.67;;;7.80;99.90;;;;;;5060958;28;20071;-69
2022/05/09 05:49:57;;;;;;;2.85;1.10;;;8.30;99.90;;;;;;5054880;28;20510;-69
2022/05/09 05:52:22;;;;;;;3.38;1.52;;;8.70;99.90;;;;;;5066145;28;20729;-69
2022/05/09 05:54:48;;;;;;;4.57;1.92;;;8.80;99.90;;;;;;5066218;28;20119;-69
2022/05/09 05:57:25;;;;;;;4.70;1.77;;;8.60;99.90;;;;;;5062802;28;20036;-72
2022/05/09 05:59:54;;;;;;;7.68;1.60;;;8.50;99.90;;;;;;5034328;28;20040;-70
2022/05/09 06:02:20;;;;;;;4.90;1.60;;;8.40;99.90;;;;;;5052278;28;20036;-65
2022/05/09 06:04:46;;;;;;;2.25;1.40;;;8.30;99.90;;;;;;5073760;28;20051;-70
2022/05/09 06:07:13;;;;;;;5.03;1.90;;;8.30;99.90;;;;;;5056808;28;20039;-70
2022/05/09 06:09:44;;;;;;;3.85;1.67;;;8.20;99.90;;;;;;5059045;28;20044;-71
2022/05/09 06:12:10;;;;;;;2.58;1.23;;;8.30;99.90;;;;;;5065816;28;20043;-69
2022/05/09 06:14:37;;;;;;;2.58;1.60;;;8.80;99.90;;;;;;5062777;28;20527;-70
2022/05/09 06:17:08;;;;;;;3.92;1.30;;;9.40;99.90;;;;;;5098668;28;20059;-70
2022/05/09 06:19:33;;;;;;;5.10;1.80;;;9.70;99.90;;;;;;5061688;28;20149;-69
2022/05/09 06:21:59;;;;;;;4.07;1.95;;;9.80;99.90;;;;;;5050702;28;20032;-69
2022/05/09 06:24:25;;;;;;;4.15;1.88;;;9.90;99.90;;;;;;5054454;28;20063;-69
2022/05/09 06:26:51;;;;;;;3.55;1.33;;;10.10;99.90;;;;;;5054239;28;20493;-69
2022/05/09 06:29:18;;;;;;;5.47;1.55;;;11.00;99.90;;;;;;5062188;28;20041;-69
2022/05/09 06:31:44;;;;;;;5.05;1.50;;;12.10;99.80;;;;;;5046005;28;20314;-70
2022/05/09 06:34:13;;;;;;;3.75;1.73;;;13.10;96.10;;;;;;5065396;28;20072;-69
2022/05/09 06:36:39;;;;;;;5.70;1.50;;;14.00;93.80;;;;;;5061538;28;20040;-69
2022/05/09 06:39:07;;;;;;;5.18;1.38;;;14.40;92.00;;;;;;5033117;28;20055;-69
2022/05/09 06:41:32;;;;;;;5.55;1.40;;;14.10;93.00;;;;;;5094731;28;20052;-69
2022/05/09 06:43:58;;;;;;;4.63;1.35;;;13.50;94.70;;;;;;5046919;28;20047;-69
2022/05/09 06:46:24;;;;;;;3.05;1.55;;;13.00;96.70;;;;;;5064567;28;20748;-69
2022/05/09 06:48:50;;;;;;;2.58;1.30;;;12.60;98.40;;;;;;5092624;28;20032;-69
2022/05/09 06:51:15;;;;;;;4.13;1.63;;;12.30;99.90;;;;;;5067680;28;20105;-69
2022/05/09 06:53:42;;;;;;;3.30;1.55;;;12.00;99.90;;;;;;5064219;28;20099;-69
2022/05/09 06:56:08;;;;;;;2.78;1.48;;;11.90;99.90;;;;;;5063885;28;20078;-70
2022/05/09 06:58:34;;;;;;;3.25;1.35;;;11.70;99.90;;;;;;5066687;28;20036;-69
2022/05/09 07:00:59;;;;;;;2.88;1.35;;;11.50;99.90;;;;;;5084896;28;20044;-69
2022/05/09 07:03:25;;;;;;;9.27;2.08;;;11.40;99.90;;;;;;5063189;28;20068;-69
2022/05/09 07:05:51;;;;;;;2.13;1.20;;;11.40;99.90;;;;;;5050424;28;20482;-69
2022/05/09 07:08:19;;;;;;;3.08;1.35;;;11.30;99.90;;;;;;5044409;28;20508;-69
2022/05/09 07:10:45;;;;;;;3.45;1.13;;;11.20;99.90;;;;;;5057452;28;20048;-71
2022/05/09 07:13:10;;;;;;;6.05;1.77;;;11.20;99.90;;;;;;5057799;28;20036;-69
2022/05/09 07:15:36;;;;;;;2.55;1.60;;;11.20;99.90;;;;;;5059534;28;20416;-69
2022/05/09 07:18:04;;;;;;;4.30;1.35;;;11.20;99.90;;;;;;5086370;28;20681;-70
2022/05/09 07:20:32;;;;;;;4.40;1.60;;;11.20;99.90;;;;;;5048701;28;20042;-69
2022/05/09 07:23:08;;;;;;;2.67;1.25;;;11.20;99.90;;;;;;5046917;28;20170;-69
2022/05/09 07:25:34;;;;;;;7.05;2.50;;;11.10;99.90;;;;;;5050201;28;20050;-69
2022/05/09 07:28:00;;;;;;;3.28;1.45;;;11.10;99.90;;;;;;5088476;28;20066;-69
2022/05/09 07:30:28;;;;;;;4.60;1.45;;;11.20;99.90;;;;;;5049439;28;20101;-70
2022/05/09 07:32:54;;;;;;;7.25;1.42;;;11.20;99.90;;;;;;5059883;28;20073;-70
2022/05/09 07:35:20;;;;;;;3.58;1.55;;;11.20;99.90;;;;;;5054815;28;20055;-70
2022/05/09 07:37:47;;;;;;;5.28;1.85;;;11.20;99.90;;;;;;5052645;28;20443;-70
2022/05/09 07:40:15;;;;;;;4.07;1.45;;;11.20;99.90;;;;;;5071073;28;20566;-69
2022/05/09 07:42:41;;;;;;;4.30;1.48;;;11.30;99.90;;;;;;5091553;28;20528;-69
2022/05/09 07:45:09;;;;;;;6.57;1.13;;;11.30;99.90;;;;;;5054326;28;20044;-69
2022/05/09 07:47:34;;;;;;;5.97;1.67;;;11.30;99.90;;;;;;5056051;28;20052;-69
2022/05/09 07:50:00;;;;;;;2.65;1.33;;;11.40;99.90;;;;;;5059267;28;20472;-69
2022/05/09 07:52:26;;;;;;;6.88;1.63;;;11.50;99.90;;;;;;5058594;28;20044;-69
2022/05/09 07:54:52;;;;;;;2.88;1.40;;;11.50;99.90;;;;;;5061543;28;20032;-69
2022/05/09 07:57:17;;;;;;;3.40;1.80;;;11.60;99.90;;;;;;5073310;28;20032;-69
2022/05/09 07:59:43;;;;;;;1.88;1.23;;;11.60;99.90;;;;;;5056415;28;20036;-69
2022/05/09 08:02:09;;;;;;;4.72;1.58;;;11.70;99.90;;;;;;5053343;28;20040;-69
2022/05/09 08:04:35;;;;;;;4.93;1.30;;;11.70;99.90;;;;;;5058351;28;20036;-69
2022/05/09 08:07:02;;;;;;;2.88;1.30;;;11.80;99.90;;;;;;5076585;28;20477;-69
2022/05/09 08:09:28;;;;;;;5.72;1.40;;;11.90;99.90;;;;;;5057141;28;20048;-69
2022/05/09 08:11:54;;;;;;;5.93;1.58;;;12.00;99.90;;;;;;5068975;28;20689;-69
2022/05/09 08:14:20;;;;;;;3.30;1.77;;;12.00;99.90;;;;;;5059339;28;20047;-69
2022/05/09 08:16:46;;;;;;;3.33;1.50;;;12.10;99.90;;;;;;5037294;28;20052;-69
2022/05/09 08:19:12;;;;;;;3.38;1.13;;;12.10;99.60;;;;;;5063415;28;20044;-69
2022/05/09 08:21:38;;;;;;;3.53;1.15;;;12.10;99.40;;;;;;5083765;28;20054;-69
2022/05/09 08:24:05;;;;;;;8.18;1.65;;;12.20;99.80;;;;;;5056880;28;20737;-69
2022/05/09 08:26:31;;;;;;;4.82;1.73;;;12.30;99.90;;;;;;5043074;28;20397;-69
2022/05/09 08:28:57;;;;;;;2.78;1.15;;;12.40;99.70;;;;;;5055000;28;20561;-69
2022/05/09 08:31:23;;;;;;;5.97;1.20;;;12.50;99.70;;;;;;5040361;28;20043;-69
2022/05/09 08:33:52;;;;;;;4.47;1.33;;;12.50;99.00;;;;;;5070522;28;20156;-69
2022/05/09 08:39:05;;;;;;;4.25;1.30;;;12.60;98.90;;;;;;5050042;28;20044;-69
2022/05/09 08:41:50;;;;;;;4.57;1.48;;;12.80;98.70;;;;;;5066807;28;20130;-69
2022/05/09 08:44:28;;;;;;;4.40;1.08;;;12.80;98.50;;;;;;5055402;28;20032;-69
2022/05/09 08:47:13;;;;;;;3.05;0.95;;;12.80;97.80;;;;;;5038709;28;20040;-69
2022/05/09 08:49:56;;;;;;;5.07;1.08;;;12.90;96.40;;;;;;5051305;28;20044;-69
2022/05/09 08:52:45;;;;;;;2.95;1.40;;;13.00;96.80;;;;;;5053499;28;20052;-69
2022/05/09 08:55:12;;;;;;;2.38;1.17;;;13.10;96.60;;;;;;5052771;28;20485;-69
2022/05/09 08:57:44;;;;;;;3.88;1.42;;;13.10;96.80;;;;;;5052819;28;20073;-69
2022/05/09 09:00:14;;;;;;;1.85;0.95;;;13.20;96.20;;;;;;5067277;28;20040;-69
2022/05/09 09:03:00;;;;;;;3.17;1.30;;;13.20;96.20;;;;;;5054684;28;20051;-69
2022/05/09 09:05:32;;;;;;;4.00;1.42;;;13.30;96.00;;;;;;5044174;28;20520;-69
2022/05/09 09:08:09;;;;;;;1.92;1.00;;;13.40;95.80;;;;;;5057167;28;20032;-68
2022/05/09 09:10:54;;;;;;;2.33;0.70;;;13.50;95.00;;;;;;5072322;28;20408;-69
2022/05/09 09:13:42;;;;;;;7.28;1.25;;;13.50;93.70;;;;;;5074167;28;20107;-72
2022/05/09 09:16:16;;;;;;;2.13;0.95;;;13.50;93.60;;;;;;5053320;28;20040;-70
2022/05/09 09:19:28;;;;;;;2.55;0.98;;;13.60;94.00;;;;;;5050616;28;20033;-69
2022/05/09 09:22:21;;;;;;;2.10;0.88;;;13.70;91.40;;;;;;5036132;28;20036;-69
2022/05/09 09:25:11;;;;;;;3.00;1.33;;;13.70;91.50;;;;;;5089104;28;20038;-69
2022/05/09 09:27:59;;;;;;;3.50;1.00;;;13.80;89.50;;;;;;5086240;28;20040;-70
2022/05/09 09:30:25;;;;;;;3.95;1.27;;;13.90;89.30;;;;;;5053748;28;20028;-70
2022/05/09 09:32:58;;;;;;;2.00;0.70;;;13.90;91.30;;;;;;5037935;28;20048;-69
2022/05/09 09:35:35;;;;;;;5.82;0.90;;;14.00;90.40;;;;;;5081963;28;20576;-69
2022/05/09 09:38:05;;;;;;;2.05;0.93;;;14.10;90.30;;;;;;5055855;28;20047;-70
2022/05/09 09:40:31;;;;;;;2.25;1.10;;;14.10;90.40;;;;;;5091127;28;20619;-69
2022/05/09 09:42:57;;;;;;;2.47;1.00;;;14.20;90.80;;;;;;5052619;28;20036;-69
2022/05/09 09:45:30;;;;;;;1.52;0.60;;;14.30;90.40;;;;;;5059469;28;20482;-69
2022/05/09 09:48:11;;;;;;;1.48;0.90;;;14.40;90.00;;;;;;5089500;28;20409;-69
2022/05/09 09:50:49;;;;;;;3.70;1.02;;;14.40;88.70;;;;;;5061345;28;20032;-69
2022/05/09 09:53:41;;;;;;;5.85;0.82;;;14.50;88.40;;;;;;5054809;28;20142;-69
2022/05/09 09:56:21;;;;;;;1.65;0.85;;;14.70;88.30;;;;;;5089820;28;20044;-69
2022/05/09 09:58:49;;;;;;;1.75;0.70;;;14.70;89.30;;;;;;5075988;28;20473;-69
2022/05/09 10:01:21;;;;;;;6.30;1.35;;;14.80;88.00;;;;;;5041994;28;20134;-69
2022/05/09 10:04:02;;;;;;;2.22;0.80;;;14.80;85.80;;;;;;5041180;28;20093;-71
2022/05/09 10:06:28;;;;;;;3.63;0.88;;;14.80;85.90;;;;;;5079453;28;20024;-72
2022/05/09 10:08:58;;;;;;;2.53;0.95;;;14.80;86.20;;;;;;5040697;28;20477;-71
2022/05/09 10:11:28;;;;;;;2.20;0.57;;;14.80;84.30;;;;;;5059207;28;20411;-70
2022/05/09 10:13:56;;;;;;;1.55;0.73;;;14.90;85.10;;;;;;5069882;28;20040;-70
2022/05/09 10:16:54;;;;;;;3.35;1.15;;;14.90;84.70;;;;;;5051271;28;20312;-71
2022/05/09 10:19:30;;;;;;;3.90;0.93;;;14.90;83.30;;;;;;5084535;28;20062;-70
2022/05/09 10:25:18;;;;;;;2.17;0.43;;;15.00;84.50;;;;;;5056440;28;20040;-70
2022/05/09 10:27:44;;;;;;;3.85;0.80;;;15.30;85.20;;;;;;5031849;28;20055;-70
2022/05/09 10:30:24;;;;;;;1.95;0.70;;;15.60;84.50;;;;;;5056419;28;20032;-70
2022/05/09 10:32:54;;;;;;;1.40;0.70;;;15.70;81.30;;;;;;5054935;28;20170;-70
2022/05/09 10:35:28;;;;;;;1.00;0.45;;;15.90;81.40;;;;;;5038931;28;20025;-70
2022/05/09 10:38:02;;;;;;;0.98;0.40;;;15.90;80.20;;;;;;5059863;28;20047;-70
2022/05/09 10:40:44;;;;;;;1.52;0.52;;;15.90;80.80;;;;;;5087940;28;20105;-70
2022/05/09 10:43:13;;;;;;;2.13;0.70;;;15.90;79.10;;;;;;5058808;28;20039;-70
2022/05/09 10:45:50;;;;;;;5.80;0.75;;;15.90;80.90;;;;;;5058418;28;20501;-70
2022/05/09 10:48:35;;;;;;;3.88;0.63;;;16.00;77.40;;;;;;5059603;28;20051;-70
2022/05/09 10:51:14;;;;;;;0.47;0.40;;;16.00;78.00;;;;;;5055943;28;20049;-70
2022/05/09 10:53:53;;;;;;;0.88;0.40;;;16.00;75.70;;;;;;5060208;28;20109;-70
2022/05/09 10:56:41;;;;;;;1.42;0.80;;;16.00;75.10;;;;;;5055011;28;20040;-70
2022/05/09 10:59:18;;;;;;;1.30;0.50;;;16.00;73.90;;;;;;5055163;28;20516;-70
2022/05/09 11:01:47;;;;;;;0.68;0.50;;;16.10;77.50;;;;;;5051583;28;20063;-70
2022/05/09 11:04:14;;;;;;;0.63;0.38;;;16.10;79.20;;;;;;5054246;28;20485;-70
2022/05/09 11:06:52;;;;;;;1.25;0.70;;;16.20;78.60;;;;;;5052681;28;20329;-70
2022/05/09 11:09:38;;;;;;;2.40;0.60;;;16.30;78.20;;;;;;5071899;28;20036;-70
2022/05/09 11:12:41;;;;;;;0.95;0.57;;;16.40;78.00;;;;;;5089690;28;20123;-70
2022/05/09 11:15:42;;;;;;;2.42;0.70;;;16.40;74.20;;;;;;5057811;28;20071;-73
2022/05/09 11:18:58;;;;;;;2.47;0.60;;;16.40;75.50;;;;;;4987761;28;20041;-70
2022/05/09 11:21:43;;;;;;;1.50;0.60;;;16.60;76.70;;;;;;5032469;28;20055;-70
2022/05/09 11:24:15;;;;;;;1.55;0.90;;;17.00;75.30;;;;;;5044383;28;20486;-70
2022/05/09 11:27:28;;;;;;;3.13;0.75;;;17.20;73.90;;;;;;5056472;28;20059;-70
2022/05/09 11:30:02;;;;;;;1.08;0.40;;;17.30;71.50;;;;;;5034968;28;20105;-70
2022/05/09 11:32:41;;;;;;;2.08;0.50;;;17.30;73.90;;;;;;5087371;28;20036;-70
2022/05/09 11:35:15;;;;;;;4.80;0.77;;;17.30;75.20;;;;;;5058807;28;20119;-73
2022/05/09 11:38:07;;;;;;;3.53;0.70;;;17.40;76.40;;;;;;5043470;28;20036;-72
2022/05/09 11:40:59;;;;;;;2.42;0.63;;;17.50;71.70;;;;;;5054689;28;20036;-70
2022/05/09 11:43:51;;;;;;;2.70;0.90;;;17.60;72.10;;;;;;5059415;28;20115;-70
2022/05/09 11:46:47;;;;;;;1.33;0.52;;;17.70;69.50;;;;;;5046055;28;20102;-70
2022/05/09 11:49:38;;;;;;;1.17;0.52;;;17.70;71.70;;;;;;5053412;28;20066;-70
2022/05/09 11:52:21;;;;;;;2.10;0.70;;;17.60;74.20;;;;;;5053064;28;20044;-70
2022/05/09 11:54:48;;;;;;;1.60;0.85;;;17.50;74.10;;;;;;5053999;28;20603;-70
2022/05/09 11:57:26;;;;;;;1.33;0.73;;;17.60;74.40;;;;;;5053940;28;20045;-70
2022/05/09 12:00:06;;;;;;;2.38;0.90;;;17.50;74.00;;;;;;5086741;28;20048;-70
2022/05/09 12:02:52;;;;;;;2.03;0.80;;;17.50;74.20;;;;;;5071656;28;20051;-70
2022/05/09 12:05:54;;;;;;;1.58;0.57;;;17.60;73.50;;;;;;5071176;28;20051;-70
2022/05/09 12:08:22;;;;;;;3.65;0.80;;;17.80;72.00;;;;;;5102606;28;20493;-70
2022/05/09 12:11:09;;;;;;;3.22;0.80;;;18.00;73.30;;;;;;5107525;28;20404;-70
2022/05/09 12:13:38;;;;;;;1.50;0.80;;;18.20;72.90;;;;;;5065914;28;20489;-70
2022/05/09 12:16:04;;;;;;;2.00;0.70;;;18.30;70.60;;;;;;5052059;28;20075;-70
2022/05/09 12:18:54;;;;;;;3.13;0.70;;;18.30;71.00;;;;;;5090356;28;20489;-70
2022/05/09 12:21:22;;;;;;;2.83;0.70;;;18.30;68.20;;;;;;5071944;28;20248;-70
2022/05/09 12:23:50;;;;;;;2.97;0.88;;;18.30;71.20;;;;;;5052395;28;20040;-70
2022/05/09 12:26:31;;;;;;;1.13;0.60;;;18.30;71.20;;;;;;5052481;28;20432;-70
2022/05/09 12:29:16;;;;;;;3.33;0.80;;;18.20;69.00;;;;;;5057881;28;20040;-70
2022/05/09 12:31:46;;;;;;;1.27;0.80;;;18.20;69.00;;;;;;5056392;28;20085;-70
2022/05/09 12:34:17;;;;;;;3.53;0.70;;;18.10;70.30;;;;;;5062761;28;20477;-70
2022/05/09 12:36:47;;;;;;;1.38;0.77;;;18.10;70.70;;;;;;5052749;28;20032;-70
2022/05/09 12:39:33;;;;;;;1.17;0.60;;;18.20;70.80;;;;;;5052444;28;20047;-70
2022/05/09 12:42:00;;;;;;;;;;;18.30;68.40;;;;;;5052982;28;20554;-70
2022/05/09 12:44:40;;;;;;;1.20;0.70;;;18.40;63.80;;;;;;5052574;28;19920;-70
2022/05/09 12:47:10;;;;;;;2.53;0.70;;;18.40;69.30;;;;;;5052897;28;20045;-70
2022/05/09 12:49:45;;;;;;;3.88;0.85;;;18.40;69.30;;;;;;5066694;28;20094;-70
2022/05/09 12:52:17;;;;;;;1.95;0.68;;;18.40;67.70;;;;;;5064355;28;20127;-70
2022/05/09 12:55:52;;;;;;;4.18;1.35;;;18.40;69.40;;;;;;5066303;28;20122;-70
2022/05/09 12:57:35;;;;;;;1.85;0.70;;;18.40;67.70;;;;;;5072680;28;20059;-70
2022/05/09 13:00:12;;;;;;;1.58;0.90;;;18.40;68.60;;;;;;5072627;28;20068;-70
2022/05/09 13:02:38;;;;;;;1.30;0.68;;;18.40;68.00;;;;;;5039595;28;20171;-70
2022/05/09 13:05:05;;;;;;;2.15;0.75;;;18.50;68.60;;;;;;5068853;28;20116;-70
2022/05/09 13:07:30;;;;;;;2.80;1.20;;;18.50;68.20;;;;;;5067907;28;20040;-70
2022/05/09 13:09:57;;;;;;;1.38;0.63;;;18.40;68.10;;;;;;5052652;28;20437;-70
2022/05/09 13:12:33;;;;;;;2.47;0.80;;;18.50;68.40;;;;;;5036013;28;20041;-70
2022/05/09 13:15:10;;;;;;;1.55;0.80;;;18.50;65.80;;;;;;5036180;28;20131;-70
2022/05/09 13:17:39;;;;;;;2.22;0.82;;;18.60;67.00;;;;;;5070117;28;20809;-70
2022/05/09 13:20:13;;;;;;;3.13;0.93;;;18.60;67.30;;;;;;5067283;28;20039;-70
2022/05/09 13:22:49;;;;;;;3.90;1.10;;;18.60;67.00;;;;;;5085282;28;20044;-70